Hlavní strana
METAR-TAF:

METAR-TAF

Letiště :

Sandefjord, Norsko

zeměpisná šířka: 59-12N, zeměpisná délka: 010-16E, výška: 8 m

Aktuální stav počasí

Zpráva byla vytvořena před 38 minutami, v 06:50 UTC
Severoseverozápadní vítr 7 kt
Teplota 7°C
Vlhkost vzduchu 49%
Tlak 1015 hPa
Viditelnost 10 km a více
Žádná oblačnost pod 1500 m, nevyskytují se cumulonimby.

METAR: ENTO 240650Z 33007KT CAVOK 07/M03 Q1015

Čas: 09:28 (07:28 UTC)

Předpověď počasí

Předpověď platná od 24 v 06 UTC do 25 v 06 UTC
Severozápadní vítr 12 kt
Viditelnost 10 km a více
Žádná oblačnost pod 1500 m, nevyskytují se cumulonimby.

TAF: ENTO 2406/2506 32012KT CAVOK

Stav a předpovědi počasí z více než 4 000 letišť (zprávy METAR a TAF).

Červené a žluté tečky na mapě představují dostupné meteorologické stanice.

Když kurzor umístíte na tečku, zobrazí se název stanice.

Pak kliknutím zobrazíte stav a předpověď počasí.

Chcete-li změnit mapu, kliknutím na zelené tlačítko se znaménkem +mapu přiblížíte, kliknutím na zelené tlačítko se znaménkem – mapu oddálíte a kliknutím na zelené šipky přejdete na sousední mapy.


METAR-TAF: